Terminal Aerodrome Forecast
Issued by NWS Cleveland, OH

Home | Current Version | Previous Version | Text Only | Print | Product List | Glossary On
Versions: 1 2 3 4 5 6 7 8 9 10 11 12 13 14 15
399
FTUS41 KCLE 030529
TAFYNG
TAF
KYNG 030529Z 0306/0406 28010KT P6SM FEW009 OVC022
     FM031000 28007KT 5SM BR VCSH BKN009 OVC025
     FM031600 28009KT P6SM VCSH OVC018
     FM032100 28009KT P6SM OVC030=

USA.gov is the U.S. government's official web portal to all federal, state and local government web resources and services.